Vila-real, Spain
Current Conditions -  °F | °C
As of 3:00 PM on Monday 22 Dec 2014 (Local Time) from LEBT Reporting Station
Clear Clear  
Wind Chill: 63°   Ceiling: Unl
Heat Index: 63°   Visibility: 6mi
Dew Point: 45°   Wind: 0mph
Humidity: 52%   Direction: NA
Pressure: 30.45"   Gusts: NA
Location:  39.93°N, 0.1°W
Report Text: LEBT 221400Z AUTO 00000KT CAVOK 17/07 Q1031
Loading
Personal Weather Stations






























Interactive Weather Map New forecast layout! Learn more

10-Day Weather Forecast

Advertisements
Track Severe Weather on mobile